createdAt,value
2023-03-26T00:00:21.746Z,74.39
2023-03-26T00:02:52.327Z,74.47
2023-03-26T00:05:22.514Z,74.45
2023-03-26T00:07:52.596Z,74.22
2023-03-26T00:10:22.966Z,74.43
2023-03-26T00:12:55.904Z,74.60
2023-03-26T00:15:25.845Z,74.87
2023-03-26T00:17:56.486Z,75.26
2023-03-26T00:20:27.615Z,75.43
2023-03-26T00:22:57.992Z,75.08
2023-03-26T00:25:28.068Z,74.98
2023-03-26T00:28:00.792Z,74.79
2023-03-26T00:30:31.174Z,74.55
2023-03-26T00:33:01.499Z,74.25
2023-03-26T00:35:31.831Z,74.39
2023-03-26T00:38:02.406Z,74.39
2023-03-26T00:40:36.906Z,74.21
2023-03-26T00:43:18.869Z,74.10
2023-03-26T00:45:50.338Z,74.47
2023-03-26T00:48:28.668Z,74.63
2023-03-26T00:51:04.524Z,74.77
2023-03-26T00:53:35.158Z,74.47
2023-03-26T00:56:05.623Z,74.31
2023-03-26T00:58:38.833Z,74.43
2023-03-26T01:01:13.916Z,74.22
2023-03-26T01:04:00.865Z,74.37
2023-03-26T01:06:37.008Z,74.43
2023-03-26T01:09:16.104Z,74.48
2023-03-26T01:11:47.072Z,74.54
2023-03-26T01:14:23.863Z,74.32
2023-03-26T01:16:57.219Z,74.79
2023-03-26T01:19:34.125Z,74.43
2023-03-26T01:22:05.350Z,74.78
2023-03-26T01:24:38.088Z,74.57
2023-03-26T01:27:21.119Z,74.53
2023-03-26T01:29:56.088Z,74.70
2023-03-26T01:32:41.160Z,74.51
2023-03-26T01:35:21.468Z,74.83
2023-03-26T01:38:10.804Z,74.59
2023-03-26T01:40:49.637Z,74.54
2023-03-26T01:43:29.084Z,74.49
2023-03-26T01:46:03.771Z,74.39
2023-03-26T01:48:36.500Z,74.40
2023-03-26T01:51:07.701Z,74.38
2023-03-26T01:53:42.422Z,74.27
2023-03-26T01:56:22.985Z,74.50
2023-03-26T01:59:09.098Z,74.36
2023-03-26T02:01:46.396Z,74.63
2023-03-26T02:04:24.897Z,74.40
2023-03-26T02:07:06.058Z,74.40
2023-03-26T02:09:46.003Z,74.21
2023-03-26T02:12:20.551Z,74.45
2023-03-26T02:14:50.688Z,74.61
2023-03-26T02:17:24.518Z,75.05
2023-03-26T02:19:54.857Z,74.90
2023-03-26T02:22:30.198Z,75.12
2023-03-26T02:25:01.957Z,75.50
2023-03-26T02:27:35.208Z,75.30
2023-03-26T02:30:05.358Z,75.53
2023-03-26T02:32:35.619Z,75.45
2023-03-26T02:35:06.935Z,75.40
2023-03-26T02:37:38.424Z,75.21
2023-03-26T02:40:17.753Z,75.10
2023-03-26T02:42:52.477Z,74.72
2023-03-26T02:45:22.827Z,74.90
2023-03-26T02:48:11.522Z,74.84
2023-03-26T02:50:41.677Z,74.64
2023-03-26T02:53:34.319Z,74.64
2023-03-26T02:56:27.212Z,74.60
2023-03-26T02:59:18.433Z,74.29
2023-03-26T03:01:52.423Z,74.54
2023-03-26T03:04:24.229Z,74.18
2023-03-26T03:06:57.835Z,74.14
2023-03-26T03:09:29.095Z,74.45
2023-03-26T03:12:18.039Z,74.24
2023-03-26T03:14:50.647Z,74.28
2023-03-26T03:17:21.008Z,74.29
2023-03-26T03:19:51.294Z,74.04
2023-03-26T03:22:21.476Z,74.10
2023-03-26T03:24:57.812Z,74.46
2023-03-26T03:27:28.339Z,74.64
2023-03-26T03:30:11.096Z,74.70
2023-03-26T03:32:50.227Z,74.69
2023-03-26T03:35:24.578Z,74.87
2023-03-26T03:37:59.281Z,74.94
2023-03-26T03:40:31.128Z,74.46
2023-03-26T03:43:01.639Z,74.70
2023-03-26T03:45:44.917Z,74.27
2023-03-26T03:48:39.349Z,74.02
2023-03-26T03:51:10.878Z,74.14
2023-03-26T03:53:53.955Z,73.71
2023-03-26T03:56:36.210Z,74.01
2023-03-26T03:59:28.256Z,73.96
2023-03-26T04:02:01.004Z,74.30
2023-03-26T04:04:37.848Z,74.38
2023-03-26T04:07:09.930Z,74.50
2023-03-26T04:10:04.085Z,74.47
2023-03-26T04:12:54.171Z,74.66
2023-03-26T04:15:37.343Z,74.76
2023-03-26T04:18:11.952Z,75.11
2023-03-26T04:20:48.345Z,75.06
2023-03-26T04:23:38.659Z,74.96
2023-03-26T04:26:21.485Z,74.76
2023-03-26T04:29:12.080Z,74.64
2023-03-26T04:31:43.319Z,74.72
2023-03-26T04:34:25.297Z,74.81
2023-03-26T04:37:14.491Z,74.41
2023-03-26T04:39:50.299Z,74.22
2023-03-26T04:42:37.786Z,74.08
2023-03-26T04:45:33.779Z,73.98
2023-03-26T04:48:04.181Z,73.79
2023-03-26T04:50:37.607Z,74.03
2023-03-26T04:53:08.082Z,73.92
2023-03-26T04:56:02.260Z,73.88
2023-03-26T04:59:03.561Z,73.95
2023-03-26T05:01:38.040Z,73.93
2023-03-26T05:04:09.151Z,73.93
2023-03-26T05:06:43.098Z,74.10
2023-03-26T05:09:25.835Z,74.39
2023-03-26T05:12:16.933Z,74.72
2023-03-26T05:15:22.318Z,74.81
2023-03-26T05:17:58.332Z,75.00
2023-03-26T05:20:34.018Z,74.66
2023-03-26T05:23:10.890Z,74.61
2023-03-26T05:25:47.355Z,74.67
2023-03-26T05:28:24.901Z,74.39
2023-03-26T05:31:01.808Z,74.37
2023-03-26T05:33:36.956Z,74.22
2023-03-26T05:36:15.971Z,74.29
2023-03-26T05:38:53.591Z,74.65
2023-03-26T05:41:42.011Z,74.70
2023-03-26T05:44:11.997Z,74.74
2023-03-26T05:46:42.156Z,74.79
2023-03-26T05:49:15.588Z,74.47
2023-03-26T05:51:45.762Z,74.48
2023-03-26T05:54:38.531Z,74.26
2023-03-26T05:57:11.417Z,73.93
2023-03-26T06:00:16.957Z,74.72
2023-03-26T06:02:47.261Z,73.77
2023-03-26T06:05:37.422Z,73.51
2023-03-26T06:08:16.061Z,74.04
2023-03-26T06:11:01.309Z,74.01
2023-03-26T06:13:34.356Z,74.13
2023-03-26T06:16:04.693Z,74.03
2023-03-26T06:18:37.978Z,73.96
2023-03-26T06:21:46.390Z,73.92
2023-03-26T06:24:22.278Z,73.96
2023-03-26T06:27:12.269Z,73.88
2023-03-26T06:29:56.664Z,74.12
2023-03-26T06:32:40.767Z,73.86
2023-03-26T06:35:17.503Z,73.88
2023-03-26T06:37:47.701Z,74.02
2023-03-26T06:40:17.903Z,73.59
2023-03-26T06:43:29.016Z,73.74
2023-03-26T06:46:23.612Z,73.72
2023-03-26T06:49:12.495Z,73.64
2023-03-26T06:51:46.645Z,73.45
2023-03-26T06:54:42.775Z,73.39
2023-03-26T06:57:45.627Z,73.45
2023-03-26T07:00:38.701Z,73.48
2023-03-26T07:03:27.607Z,73.51
2023-03-26T07:06:16.078Z,73.58
2023-03-26T07:09:06.781Z,73.29
2023-03-26T07:11:55.712Z,73.38
2023-03-26T07:14:44.814Z,73.01
2023-03-26T07:17:36.050Z,73.46
2023-03-26T07:20:15.838Z,73.71
2023-03-26T07:22:46.855Z,73.45
2023-03-26T07:25:22.435Z,73.33
2023-03-26T07:28:28.359Z,72.87
2023-03-26T07:31:30.885Z,72.67
2023-03-26T07:34:29.369Z,72.51
2023-03-26T07:37:34.076Z,72.44
2023-03-26T07:40:49.405Z,71.99
2023-03-26T07:43:43.910Z,71.53
2023-03-26T07:46:47.996Z,71.81
2023-03-26T07:49:57.897Z,72.22
2023-03-26T07:52:41.062Z,71.95
2023-03-26T07:55:21.551Z,71.42
2023-03-26T07:58:18.458Z,71.25
2023-03-26T08:01:14.791Z,71.14
2023-03-26T08:04:23.272Z,70.75
2023-03-26T08:07:22.414Z,70.14
2023-03-26T08:10:19.857Z,70.22
2023-03-26T08:13:10.061Z,70.28
2023-03-26T08:15:48.086Z,70.11
2023-03-26T08:18:30.642Z,70.87
2023-03-26T08:21:08.186Z,70.84
2023-03-26T08:23:51.299Z,71.06
2023-03-26T08:26:34.583Z,70.74
2023-03-26T08:29:17.425Z,70.43
2023-03-26T08:31:49.528Z,70.63
2023-03-26T08:34:19.564Z,70.64
2023-03-26T08:36:49.644Z,70.35
2023-03-26T08:39:22.710Z,70.50
2023-03-26T08:42:22.456Z,70.45
2023-03-26T08:45:25.405Z,70.36
2023-03-26T08:48:29.999Z,69.84
2023-03-26T08:51:30.200Z,70.00
2023-03-26T08:54:29.620Z,69.61
2023-03-26T08:57:16.000Z,69.70
2023-03-26T09:00:20.762Z,69.97
2023-03-26T09:03:28.036Z,69.79
2023-03-26T09:06:19.865Z,69.25
2023-03-26T09:09:37.594Z,69.67
2023-03-26T09:12:39.932Z,69.38
2023-03-26T09:15:45.249Z,69.43
2023-03-26T09:18:45.619Z,69.25
2023-03-26T09:21:31.048Z,70.18
2023-03-26T09:24:34.540Z,70.63
2023-03-26T09:27:18.751Z,70.33
2023-03-26T09:30:33.463Z,69.70
2023-03-26T09:33:33.471Z,69.45
2023-03-26T09:36:33.135Z,69.63
2023-03-26T09:39:18.001Z,69.28
2023-03-26T09:42:05.122Z,68.99
2023-03-26T09:45:06.366Z,69.45
2023-03-26T09:47:53.824Z,69.76
2023-03-26T09:50:59.037Z,69.86
2023-03-26T09:53:54.275Z,70.31
2023-03-26T09:56:49.983Z,70.71
2023-03-26T09:59:55.755Z,70.46
2023-03-26T10:02:45.108Z,71.11
2023-03-26T10:05:30.255Z,70.90
2023-03-26T10:08:09.761Z,70.70
2023-03-26T10:10:52.173Z,70.46
2023-03-26T10:13:33.632Z,70.44
2023-03-26T10:16:13.388Z,69.82
2023-03-26T10:18:58.840Z,69.50
2023-03-26T10:21:41.847Z,69.53
2023-03-26T10:24:23.850Z,69.81
2023-03-26T10:27:09.422Z,69.58
2023-03-26T10:30:10.822Z,68.85
2023-03-26T10:32:49.894Z,69.58
2023-03-26T10:35:29.516Z,69.69
2023-03-26T10:38:16.814Z,69.71
2023-03-26T10:40:58.165Z,69.78
2023-03-26T10:43:54.592Z,69.45
2023-03-26T10:46:47.207Z,68.53
2023-03-26T10:49:58.336Z,67.84
2023-03-26T10:52:36.148Z,67.97
2023-03-26T10:55:14.740Z,68.25
2023-03-26T10:57:49.223Z,68.56
2023-03-26T11:00:25.547Z,68.06
2023-03-26T11:03:14.761Z,68.16
2023-03-26T11:05:52.228Z,68.45
2023-03-26T11:08:31.924Z,68.41
2023-03-26T11:11:12.138Z,68.33
2023-03-26T11:13:51.183Z,68.39
2023-03-26T11:16:28.556Z,67.99
2023-03-26T11:19:05.782Z,68.87
2023-03-26T11:21:43.227Z,69.12
2023-03-26T11:24:37.932Z,68.97
2023-03-26T11:27:20.896Z,69.03
2023-03-26T11:29:58.654Z,69.16
2023-03-26T11:32:34.827Z,68.96
2023-03-26T11:35:14.656Z,69.34
2023-03-26T11:37:48.323Z,69.08
2023-03-26T11:40:24.582Z,68.31
2023-03-26T11:43:01.423Z,67.84
2023-03-26T11:45:36.307Z,67.66
2023-03-26T11:48:11.513Z,67.35
2023-03-26T11:54:28.921Z,66.54
2023-03-26T11:57:07.404Z,66.59
2023-03-26T11:59:56.525Z,67.31
2023-03-26T12:02:34.386Z,67.95
2023-03-26T12:05:20.478Z,67.90
2023-03-26T12:07:57.016Z,68.33
2023-03-26T12:10:38.360Z,68.01
2023-03-26T12:13:33.363Z,68.47
2023-03-26T12:16:11.040Z,68.20
2023-03-26T12:18:44.049Z,67.96
2023-03-26T12:21:16.093Z,68.24
2023-03-26T12:23:57.017Z,68.39
2023-03-26T12:26:45.225Z,68.32
2023-03-26T12:29:17.410Z,67.80
2023-03-26T12:31:54.297Z,67.87
2023-03-26T12:34:26.491Z,67.52
2023-03-26T12:37:00.258Z,67.85
2023-03-26T12:40:09.380Z,67.45
2023-03-26T12:44:45.206Z,67.95
2023-03-26T12:45:25.901Z,68.88
2023-03-26T12:48:03.425Z,68.74
2023-03-26T12:50:57.550Z,68.73
2023-03-26T12:53:52.884Z,68.23
2023-03-26T12:56:36.548Z,68.53
2023-03-26T12:59:24.712Z,67.48
2023-03-26T13:02:07.881Z,67.78
2023-03-26T13:05:05.036Z,67.94
2023-03-26T13:07:52.251Z,67.51
2023-03-26T13:10:41.484Z,67.66
2023-03-26T13:13:36.539Z,67.18
2023-03-26T13:16:16.530Z,68.40
2023-03-26T13:18:53.181Z,68.56
2023-03-26T13:21:34.068Z,69.26
2023-03-26T13:24:10.780Z,69.12
2023-03-26T13:26:55.605Z,69.43
2023-03-26T13:29:32.352Z,69.35
2023-03-26T13:32:17.866Z,69.23
2023-03-26T13:35:02.731Z,68.83
2023-03-26T13:37:40.068Z,68.40
2023-03-26T13:40:25.587Z,66.77
2023-03-26T13:43:22.165Z,68.38
2023-03-26T13:46:00.602Z,67.28
2023-03-26T13:48:39.744Z,67.76
2023-03-26T13:51:14.410Z,69.05
2023-03-26T13:53:50.666Z,69.66
2023-03-26T13:56:26.608Z,69.13
2023-03-26T13:59:02.446Z,68.91
2023-03-26T14:01:41.357Z,68.73
2023-03-26T14:04:21.803Z,69.00
2023-03-26T14:06:58.136Z,69.04
2023-03-26T14:09:33.508Z,68.45
2023-03-26T14:12:21.191Z,67.98
2023-03-26T14:14:57.256Z,67.70
2023-03-26T14:17:34.602Z,67.64
2023-03-26T14:20:41.603Z,67.85
2023-03-26T14:23:35.270Z,67.92
2023-03-26T14:26:17.530Z,67.06
2023-03-26T14:29:12.862Z,67.57
2023-03-26T14:31:51.568Z,67.77
2023-03-26T14:34:33.369Z,68.10
2023-03-26T14:37:38.706Z,67.10
2023-03-26T14:40:28.094Z,65.18
2023-03-26T14:43:08.226Z,67.00
2023-03-26T14:45:55.084Z,67.23
2023-03-26T14:48:57.629Z,67.18
2023-03-26T14:51:51.627Z,67.06
2023-03-26T14:54:28.898Z,66.88
2023-03-26T14:57:29.372Z,67.19
2023-03-26T15:00:32.304Z,66.06
2023-03-26T15:03:38.835Z,67.31
2023-03-26T15:06:29.101Z,67.18
2023-03-26T15:09:31.450Z,66.19
2023-03-26T15:12:13.719Z,66.44
2023-03-26T15:15:14.022Z,66.50
2023-03-26T15:18:12.338Z,67.06
2023-03-26T15:21:18.321Z,67.04
2023-03-26T15:24:20.655Z,65.55
2023-03-26T15:27:31.526Z,66.58
2023-03-26T15:30:33.745Z,67.02
2023-03-26T15:33:31.186Z,67.32
2023-03-26T15:36:19.665Z,67.30
2023-03-26T15:39:38.223Z,63.83
2023-03-26T15:42:22.207Z,67.38
2023-03-26T15:44:57.889Z,67.27
2023-03-26T15:47:54.159Z,66.33
2023-03-26T15:50:51.006Z,67.12
2023-03-26T15:53:33.801Z,67.20
2023-03-26T15:56:21.059Z,66.91
2023-03-26T15:59:02.841Z,66.98
2023-03-26T16:01:49.199Z,67.08
2023-03-26T16:04:27.885Z,66.99
2023-03-26T16:07:03.905Z,66.97
2023-03-26T16:10:01.209Z,66.61
2023-03-26T16:12:39.342Z,67.03
2023-03-26T16:15:29.571Z,64.48
2023-03-26T16:18:32.404Z,64.86
2023-03-26T16:21:31.944Z,66.56
2023-03-26T16:24:22.606Z,66.35
2023-03-26T16:27:08.093Z,66.43
2023-03-26T16:30:20.689Z,66.47
2023-03-26T16:32:58.976Z,66.30
2023-03-26T16:36:02.601Z,66.17
2023-03-26T16:38:52.603Z,65.01
2023-03-26T16:41:25.924Z,65.85
2023-03-26T16:44:10.803Z,65.99
2023-03-26T16:46:53.082Z,66.22
2023-03-26T16:49:34.975Z,66.38
2023-03-26T16:52:24.153Z,65.70
2023-03-26T16:55:04.034Z,65.44
2023-03-26T16:57:43.771Z,65.63
2023-03-26T17:00:36.128Z,65.16
2023-03-26T17:03:29.071Z,65.36
2023-03-26T17:06:17.135Z,65.81
2023-03-26T17:08:57.553Z,65.94
2023-03-26T17:11:38.727Z,65.37
2023-03-26T17:14:24.017Z,65.18
2023-03-26T17:17:15.291Z,65.45
2023-03-26T17:19:53.044Z,65.61
2023-03-26T17:22:37.566Z,65.29
2023-03-26T17:25:35.191Z,64.87
2023-03-26T17:28:45.817Z,65.03
2023-03-26T17:31:24.098Z,65.19
2023-03-26T17:33:54.992Z,64.89
2023-03-26T17:36:43.952Z,64.62
2023-03-26T17:40:12.662Z,63.67
2023-03-26T17:43:04.267Z,64.07
2023-03-26T17:45:38.316Z,64.62
2023-03-26T17:48:21.270Z,64.88
2023-03-26T17:50:55.585Z,64.89
2023-03-26T17:53:30.974Z,64.60
2023-03-26T17:56:06.709Z,65.05
2023-03-26T17:58:39.364Z,65.22
2023-03-26T18:01:27.209Z,64.74
2023-03-26T18:04:00.650Z,65.42
2023-03-26T18:06:49.833Z,65.11
2023-03-26T18:09:37.859Z,65.22
2023-03-26T18:12:47.631Z,64.90
2023-03-26T18:15:37.140Z,64.76
2023-03-26T18:18:18.177Z,65.19
2023-03-26T18:20:49.380Z,64.77
2023-03-26T18:23:29.637Z,65.03
2023-03-26T18:26:01.613Z,65.15
2023-03-26T18:28:38.726Z,64.78
2023-03-26T18:31:18.964Z,65.05
2023-03-26T18:33:51.160Z,65.00
2023-03-26T18:36:30.066Z,65.17
2023-03-26T18:39:02.326Z,65.15
2023-03-26T18:41:37.993Z,65.34
2023-03-26T18:44:17.555Z,65.52
2023-03-26T18:46:50.060Z,65.31
2023-03-26T18:49:20.780Z,65.49
2023-03-26T18:51:57.084Z,65.17
2023-03-26T18:54:32.246Z,65.20
2023-03-26T18:57:15.210Z,65.55
2023-03-26T18:59:53.231Z,65.44
2023-03-26T19:02:24.802Z,65.52
2023-03-26T19:04:56.917Z,65.62
2023-03-26T19:07:28.911Z,65.94
2023-03-26T19:10:00.480Z,65.98
2023-03-26T19:12:35.963Z,66.05
2023-03-26T19:15:12.730Z,66.07
2023-03-26T19:17:47.374Z,66.29
2023-03-26T19:20:24.598Z,66.55
2023-03-26T19:22:56.156Z,66.41
2023-03-26T19:25:33.947Z,66.32
2023-03-26T19:28:11.344Z,66.62
2023-03-26T19:30:44.464Z,66.65
2023-03-26T19:33:18.572Z,66.44
2023-03-26T19:35:54.267Z,66.60
2023-03-26T19:38:27.644Z,66.75
2023-03-26T19:40:59.788Z,66.73
2023-03-26T19:43:30.459Z,66.67
2023-03-26T19:46:03.327Z,66.78
2023-03-26T19:51:18.597Z,66.93
2023-03-26T19:51:35.269Z,66.73
2023-03-26T19:54:16.097Z,66.97
2023-03-26T19:56:46.730Z,66.62
2023-03-26T19:59:17.297Z,66.63
2023-03-26T20:01:50.826Z,66.60
2023-03-26T20:04:21.479Z,66.61
2023-03-26T20:06:53.071Z,66.46
2023-03-26T20:09:23.380Z,66.63
2023-03-26T20:11:54.622Z,66.64
2023-03-26T20:14:29.592Z,66.66
2023-03-26T20:17:03.244Z,66.53
2023-03-26T20:19:43.939Z,66.51
2023-03-26T20:22:16.616Z,66.46
2023-03-26T20:24:47.961Z,66.39
2023-03-26T20:27:19.958Z,66.47
2023-03-26T20:30:00.341Z,66.71
2023-03-26T20:32:39.906Z,66.55
2023-03-26T20:35:36.128Z,66.63
2023-03-26T20:38:12.459Z,66.68
2023-03-26T20:40:47.809Z,66.65
2023-03-26T20:43:35.919Z,66.56
2023-03-26T20:46:14.218Z,66.54
2023-03-26T20:48:54.044Z,66.81
2023-03-26T20:52:03.153Z,66.68
2023-03-26T20:54:39.881Z,66.70
2023-03-26T20:57:18.923Z,66.44
2023-03-26T20:59:51.116Z,66.51
2023-03-26T21:02:23.883Z,66.39
2023-03-26T21:05:03.639Z,66.12
2023-03-26T21:07:35.792Z,66.19
2023-03-26T21:10:10.455Z,66.40
2023-03-26T21:12:48.424Z,66.32
2023-03-26T21:15:26.744Z,66.21
2023-03-26T21:17:58.588Z,66.18
2023-03-26T21:20:33.279Z,66.33
2023-03-26T21:23:16.642Z,66.44
2023-03-26T21:25:57.237Z,66.70
2023-03-26T21:28:41.842Z,66.67
2023-03-26T21:31:18.673Z,66.58
2023-03-26T21:33:50.854Z,66.66
2023-03-26T21:36:24.466Z,66.44
2023-03-26T21:38:55.841Z,66.63
2023-03-26T21:41:36.178Z,66.50
2023-03-26T21:44:06.635Z,66.54
2023-03-26T21:46:37.729Z,66.52
2023-03-26T21:49:08.969Z,66.47
2023-03-26T21:51:43.295Z,66.60
2023-03-26T21:54:21.038Z,66.19
2023-03-26T21:56:58.902Z,66.18
2023-03-26T21:59:39.464Z,66.10
2023-03-26T22:02:16.711Z,66.13
2023-03-26T22:04:52.605Z,66.19
2023-03-26T22:07:30.449Z,66.07
2023-03-26T22:10:01.164Z,66.01
2023-03-26T22:12:31.448Z,65.95
2023-03-26T22:15:01.839Z,66.09
2023-03-26T22:17:32.814Z,66.20
2023-03-26T22:20:07.440Z,66.01
2023-03-26T22:22:41.796Z,65.91
2023-03-26T22:25:13.182Z,65.65
2023-03-26T22:27:44.759Z,65.53
2023-03-26T22:30:16.603Z,65.82
2023-03-26T22:32:47.563Z,65.88
2023-03-26T22:35:18.746Z,65.60
2023-03-26T22:37:53.279Z,65.57
2023-03-26T22:40:32.096Z,65.53
2023-03-26T22:43:02.549Z,65.75
2023-03-26T22:45:33.383Z,65.72
2023-03-26T22:48:04.754Z,66.00
2023-03-26T22:50:35.882Z,65.92
2023-03-26T22:53:08.778Z,65.69
2023-03-26T22:55:40.516Z,65.63
2023-03-26T22:58:12.045Z,65.83
2023-03-26T23:00:43.624Z,65.85
2023-03-26T23:03:14.547Z,65.79
2023-03-26T23:05:44.742Z,65.71
2023-03-26T23:08:17.960Z,65.80
2023-03-26T23:10:48.440Z,65.97
2023-03-26T23:13:19.530Z,65.73
2023-03-26T23:15:52.645Z,65.90
2023-03-26T23:18:23.429Z,65.62
2023-03-26T23:20:56.127Z,65.61
2023-03-26T23:23:32.293Z,65.39
2023-03-26T23:26:05.235Z,65.62
2023-03-26T23:28:37.712Z,65.42
2023-03-26T23:31:13.092Z,65.26
2023-03-26T23:33:46.804Z,65.43
2023-03-26T23:36:19.010Z,65.00
2023-03-26T23:38:53.801Z,65.34
2023-03-26T23:41:27.673Z,65.19
2023-03-26T23:43:58.380Z,65.08
2023-03-26T23:46:33.276Z,65.06
2023-03-26T23:49:05.147Z,65.21
2023-03-26T23:51:37.238Z,65.11
2023-03-26T23:54:11.824Z,65.19
2023-03-26T23:56:42.080Z,65.26
2023-03-26T23:59:13.446Z,65.10
